Time;durP1;ratioP1;P1;durP2;ratioP2;P2;SDS_P1;SDS_P2;PMS_P1;PMS_P2;Temp;Humidity;BMP_temperature;BMP_pressure;BME280_temperature;BME280_humidity;BME280_pressure;Samples;Min_cycle;Max_cycle;Signal;HPM_P1;HPM_P2
2021/03/21 00:00:26;;;;;;;;;;;12.10;50.70;;;;;;2086958;28;1321;-49
2021/03/21 00:01:45;;;;;;;;;;;12.10;51.30;;;;;;2087476;28;830;-54
2021/03/21 00:03:04;;;;;;;;;;;12.00;50.70;;;;;;2085752;28;727;-50
2021/03/21 00:04:24;;;;;;;;;;;12.10;50.80;;;;;;2089162;28;758;-48
2021/03/21 00:05:43;;;;;;;;;;;12.00;50.80;;;;;;2088781;28;770;-49
2021/03/21 00:07:02;;;;;;;;;;;12.00;50.80;;;;;;2093354;28;968;-47
2021/03/21 00:08:26;;;;;;;;;;;12.00;50.80;;;;;;2090025;28;1245;-51
2021/03/21 00:09:46;;;;;;;;;;;12.00;50.80;;;;;;2081350;28;1354;-52
2021/03/21 00:11:06;;;;;;;;;;;12.00;51.40;;;;;;2081451;28;717;-51
2021/03/21 00:12:25;;;;;;;;;;;12.00;51.30;;;;;;2080762;28;743;-48
2021/03/21 00:13:45;;;;;;;;;;;12.00;50.90;;;;;;2081028;28;797;-50
2021/03/21 00:15:04;;;;;;;;;;;12.00;50.90;;;;;;2080182;28;766;-51
2021/03/21 00:16:23;;;;;;;;;;;12.00;50.90;;;;;;2077424;28;777;-49
2021/03/21 00:17:43;;;;;;;;;;;12.00;50.90;;;;;;2077546;28;737;-50
2021/03/21 00:19:03;;;;;;;;;;;12.00;51.00;;;;;;2081097;28;1906;-50
2021/03/21 00:20:27;;;;;;;;;;;12.00;51.00;;;;;;2080155;28;1338;-52
2021/03/21 00:21:46;;;;;;;;;;;12.00;51.10;;;;;;2079138;28;812;-54
2021/03/21 00:23:05;;;;;;;;;;;12.00;51.60;;;;;;2079292;28;793;-50
2021/03/21 00:24:25;;;;;;;;;;;12.00;51.00;;;;;;2075555;28;741;-52
2021/03/21 00:25:44;;;;;;;;;;;12.00;51.10;;;;;;2076837;28;826;-50
2021/03/21 00:27:03;;;;;;;;;;;11.90;51.00;;;;;;2066940;28;785;-49
2021/03/21 00:28:23;;;;;;;;;;;12.00;51.10;;;;;;2074922;28;768;-50
2021/03/21 00:29:42;;;;;;;;;;;12.00;51.10;;;;;;2079006;28;790;-49
2021/03/21 00:31:02;;;;;;;;;;;12.00;51.10;;;;;;2078704;28;772;-51
2021/03/21 00:32:21;;;;;;;;;;;11.90;51.00;;;;;;2082888;28;761;-52
2021/03/21 00:33:41;;;;;;;;;;;12.00;51.10;;;;;;2082428;28;766;-48
2021/03/21 00:35:00;;;;;;;;;;;11.90;51.10;;;;;;2081895;28;695;-50
2021/03/21 00:36:19;;;;;;;;;;;11.90;51.50;;;;;;2083517;28;725;-48
2021/03/21 00:37:40;;;;;;;;;;;11.90;51.60;;;;;;2092149;28;1047;-49
2021/03/21 00:38:59;;;;;;;;;;;11.90;51.60;;;;;;2094957;28;1976;-49
2021/03/21 00:40:19;;;;;;;;;;;12.00;51.20;;;;;;2090380;28;1467;-53
2021/03/21 00:41:38;;;;;;;;;;;11.90;51.10;;;;;;2090721;28;783;-50
2021/03/21 00:42:57;;;;;;;;;;;11.90;51.10;;;;;;2091021;28;705;-52
2021/03/21 00:44:16;;;;;;;;;;;11.90;51.10;;;;;;2090372;28;724;-49
2021/03/21 00:45:36;;;;;;;;;;;11.90;51.10;;;;;;2090211;28;775;-50
2021/03/21 00:46:55;;;;;;;;;;;11.90;51.10;;;;;;2090924;28;722;-49
2021/03/21 00:48:18;;;;;;;;;;;11.90;51.20;;;;;;2089469;28;717;-50
2021/03/21 00:49:37;;;;;;;;;;;11.90;51.20;;;;;;2083618;28;827;-53
2021/03/21 00:50:58;;;;;;;;;;;11.90;51.20;;;;;;2087281;28;735;-52
2021/03/21 00:52:17;;;;;;;;;;;11.90;51.80;;;;;;2090603;28;866;-47
2021/03/21 00:53:36;;;;;;;;;;;11.90;51.20;;;;;;2090578;28;716;-47
2021/03/21 00:54:55;;;;;;;;;;;11.90;51.20;;;;;;2089946;28;740;-49
2021/03/21 00:56:35;;;;;;;;;;;11.90;51.20;;;;;;2088003;28;1220;-47
2021/03/21 00:57:54;;;;;;;;;;;11.80;51.20;;;;;;2082078;28;748;-48
2021/03/21 00:59:13;;;;;;;;;;;11.90;51.30;;;;;;2078906;28;1969;-47
2021/03/21 01:00:34;;;;;;;;;;;11.90;51.30;;;;;;2078495;28;1440;-50
2021/03/21 01:01:53;;;;;;;;;;;11.90;51.80;;;;;;2078845;28;730;-48
2021/03/21 01:03:12;;;;;;;;;;;11.90;51.30;;;;;;2078856;28;734;-49
2021/03/21 01:04:31;;;;;;;;;;;11.80;51.20;;;;;;2082091;28;741;-48
2021/03/21 01:05:58;;;;;;;;;;;11.90;51.40;;;;;;2082275;28;711;-51
2021/03/21 01:07:17;;;;;;;;;;;11.80;51.30;;;;;;2095617;28;1168;-45
2021/03/21 01:08:37;;;;;;;;;;;11.80;51.30;;;;;;2084498;28;1123;-50
2021/03/21 01:09:56;;;;;;;;;;;11.80;51.40;;;;;;2090144;28;1463;-48
2021/03/21 01:11:17;;;;;;;;;;;11.80;51.40;;;;;;2095682;28;713;-47
2021/03/21 01:12:36;;;;;;;;;;;11.80;51.30;;;;;;2098249;28;810;-48
2021/03/21 01:13:56;;;;;;;;;;;11.80;51.50;;;;;;2095161;28;873;-47
2021/03/21 01:15:15;;;;;;;;;;;11.80;51.40;;;;;;2098142;28;1032;-48
2021/03/21 01:16:35;;;;;;;;;;;11.80;51.40;;;;;;2098219;28;731;-50
2021/03/21 01:17:54;;;;;;;;;;;11.80;51.50;;;;;;2095463;28;717;-50
2021/03/21 01:19:15;;;;;;;;;;;11.80;51.50;;;;;;2098578;28;1914;-49
2021/03/21 01:20:34;;;;;;;;;;;11.80;51.50;;;;;;2088786;28;1475;-49
2021/03/21 01:21:53;;;;;;;;;;;11.80;51.50;;;;;;2091771;28;730;-51
2021/03/21 01:23:12;;;;;;;;;;;11.80;51.50;;;;;;2098701;28;977;-49
2021/03/21 01:24:31;;;;;;;;;;;11.80;52.00;;;;;;2098822;28;738;-48
2021/03/21 01:25:50;;;;;;;;;;;11.80;51.50;;;;;;2098102;28;754;-48
2021/03/21 01:27:10;;;;;;;;;;;11.80;52.10;;;;;;2086512;28;741;-48
2021/03/21 01:28:30;;;;;;;;;;;11.80;51.50;;;;;;2095310;28;726;-52
2021/03/21 01:29:49;;;;;;;;;;;11.80;51.60;;;;;;2098729;28;1369;-50
2021/03/21 01:31:09;;;;;;;;;;;11.80;51.60;;;;;;2098683;28;744;-51
2021/03/21 01:32:28;;;;;;;;;;;11.70;51.50;;;;;;2098303;28;722;-49
2021/03/21 01:33:48;;;;;;;;;;;11.80;51.60;;;;;;2098518;28;706;-50
2021/03/21 01:35:08;;;;;;;;;;;11.70;51.60;;;;;;2089344;28;783;-46
2021/03/21 01:36:28;;;;;;;;;;;11.80;51.70;;;;;;2089895;28;737;-47
2021/03/21 01:37:48;;;;;;;;;;;11.70;51.60;;;;;;2092651;28;1031;-49
2021/03/21 01:39:15;;;;;;;;;;;11.70;51.60;;;;;;2084252;28;1898;-48
2021/03/21 01:40:35;;;;;;;;;;;11.70;51.70;;;;;;2085534;28;1447;-48
2021/03/21 01:42:01;;;;;;;;;;;11.70;51.70;;;;;;2086685;28;1127;-48
2021/03/21 01:43:30;;;;;;;;;;;11.70;51.70;;;;;;2095551;28;1539;-46
2021/03/21 01:44:52;;;;;;;;;;;11.70;51.70;;;;;;2098102;28;721;-50
2021/03/21 01:46:34;;;;;;;;;;;11.70;51.70;;;;;;2098213;28;744;-49
2021/03/21 01:47:53;;;;;;;;;;;11.70;51.80;;;;;;2098779;28;715;-49
2021/03/21 01:49:14;;;;;;;;;;;11.70;51.70;;;;;;2098882;28;702;-49
2021/03/21 01:50:34;;;;;;;;;;;11.70;51.70;;;;;;2097884;28;1368;-50
2021/03/21 01:51:54;;;;;;;;;;;11.70;52.30;;;;;;2086964;28;745;-48
2021/03/21 01:53:13;;;;;;;;;;;11.70;51.80;;;;;;2094728;28;790;-50
2021/03/21 01:54:32;;;;;;;;;;;11.70;51.80;;;;;;2094954;28;757;-46
2021/03/21 01:55:52;;;;;;;;;;;11.70;51.80;;;;;;2097924;28;725;-49
2021/03/21 01:57:11;;;;;;;;;;;11.70;51.80;;;;;;2098053;28;773;-48
2021/03/21 01:58:30;;;;;;;;;;;11.70;51.80;;;;;;2094864;28;849;-47
2021/03/21 01:59:49;;;;;;;;;;;11.70;51.80;;;;;;2094736;28;1914;-49
2021/03/21 02:01:09;;;;;;;;;;;11.70;51.80;;;;;;2094897;28;720;-48
2021/03/21 02:02:28;;;;;;;;;;;11.70;51.80;;;;;;2098276;28;781;-50
2021/03/21 02:03:47;;;;;;;;;;;11.70;51.80;;;;;;2098581;28;715;-49
2021/03/21 02:05:06;;;;;;;;;;;11.70;51.90;;;;;;2097343;28;755;-48
2021/03/21 02:06:34;;;;;;;;;;;11.70;51.90;;;;;;2096630;28;789;-50
2021/03/21 02:08:05;;;;;;;;;;;11.70;52.40;;;;;;2087954;28;1024;-50
2021/03/21 02:09:30;;;;;;;;;;;11.60;51.80;;;;;;2088487;28;1216;-48
2021/03/21 02:10:57;;;;;;;;;;;11.60;51.80;;;;;;2086187;28;780;-52
2021/03/21 02:12:34;;;;;;;;;;;11.60;51.90;;;;;;2085617;28;737;-50
2021/03/21 02:14:12;;;;;;;;;;;11.60;51.90;;;;;;2086368;28;815;-49
2021/03/21 02:15:54;;;;;;;;;;;11.60;51.90;;;;;;2086417;28;747;-48
2021/03/21 02:17:17;;;;;;;;;;;11.60;51.90;;;;;;2086895;28;1094;-48
2021/03/21 02:18:42;;;;;;;;;;;11.60;52.00;;;;;;2088370;28;745;-49
2021/03/21 02:20:20;;;;;;;;;;;11.60;52.00;;;;;;2079546;28;1459;-51
2021/03/21 02:21:55;;;;;;;;;;;11.60;52.00;;;;;;2086215;28;757;-51
2021/03/21 02:23:16;;;;;;;;;;;11.60;52.00;;;;;;2080306;28;742;-46
2021/03/21 02:24:41;;;;;;;;;;;11.60;52.00;;;;;;2075040;28;829;-48
2021/03/21 02:26:15;;;;;;;;;;;11.60;52.00;;;;;;2087597;28;723;-47
2021/03/21 02:27:55;;;;;;;;;;;11.60;52.60;;;;;;2090321;28;727;-51
2021/03/21 02:29:33;;;;;;;;;;;11.60;52.00;;;;;;2089565;28;732;-48
2021/03/21 02:30:52;;;;;;;;;;;11.60;52.00;;;;;;2089904;28;764;-51
2021/03/21 02:32:37;;;;;;;;;;;11.60;52.10;;;;;;2081411;28;723;-50
2021/03/21 02:34:01;;;;;;;;;;;11.60;52.60;;;;;;2090167;28;687;-47
2021/03/21 02:35:23;;;;;;;;;;;11.60;52.10;;;;;;2088737;28;1061;-49
2021/03/21 02:36:44;;;;;;;;;;;11.60;52.60;;;;;;2088172;28;1042;-53
2021/03/21 02:38:10;;;;;;;;;;;11.60;52.10;;;;;;2089796;28;1028;-49
2021/03/21 02:39:31;;;;;;;;;;;11.60;52.10;;;;;;2086999;28;1902;-50
2021/03/21 02:40:51;;;;;;;;;;;11.60;52.10;;;;;;2086272;28;805;-48
2021/03/21 02:42:13;;;;;;;;;;;11.60;52.10;;;;;;2083125;28;707;-48
2021/03/21 02:43:39;;;;;;;;;;;11.60;52.20;;;;;;2094713;28;815;-47
2021/03/21 02:45:03;;;;;;;;;;;11.60;52.10;;;;;;2086624;28;745;-48
2021/03/21 02:46:25;;;;;;;;;;;11.60;52.70;;;;;;2092397;28;784;-46
2021/03/21 02:47:44;;;;;;;;;;;11.60;52.20;;;;;;2089288;28;740;-48
2021/03/21 02:49:12;;;;;;;;;;;11.60;52.70;;;;;;2091080;28;706;-47
2021/03/21 02:50:34;;;;;;;;;;;11.50;52.10;;;;;;2094976;28;1455;-47
2021/03/21 02:51:55;;;;;;;;;;;11.60;52.20;;;;;;2089306;28;778;-47
2021/03/21 02:53:21;;;;;;;;;;;11.60;52.20;;;;;;2091360;28;751;-48
2021/03/21 02:54:50;;;;;;;;;;;11.60;52.30;;;;;;2098001;28;712;-47
2021/03/21 02:56:10;;;;;;;;;;;11.60;52.30;;;;;;2097674;28;819;-48
2021/03/21 02:57:30;;;;;;;;;;;11.50;52.20;;;;;;2094512;28;737;-47
2021/03/21 02:58:51;;;;;;;;;;;11.50;52.20;;;;;;2092116;28;1318;-48
2021/03/21 03:00:11;;;;;;;;;;;11.50;52.20;;;;;;2094558;28;1478;-47
2021/03/21 03:01:33;;;;;;;;;;;11.50;52.30;;;;;;2098106;28;735;-47
2021/03/21 03:02:53;;;;;;;;;;;11.50;52.20;;;;;;2089236;28;767;-46
2021/03/21 03:04:13;;;;;;;;;;;11.50;52.20;;;;;;2091250;28;989;-47
2021/03/21 03:05:34;;;;;;;;;;;11.50;52.30;;;;;;2085612;28;743;-46
2021/03/21 03:06:55;;;;;;;;;;;11.50;52.80;;;;;;2083817;28;1239;-47
2021/03/21 03:08:16;;;;;;;;;;;11.50;52.30;;;;;;2076910;28;1048;-47
2021/03/21 03:09:40;;;;;;;;;;;11.50;52.30;;;;;;2083318;28;755;-47
2021/03/21 03:11:10;;;;;;;;;;;11.50;52.30;;;;;;2086711;28;800;-46
2021/03/21 03:12:33;;;;;;;;;;;11.50;52.30;;;;;;2087724;28;741;-47
2021/03/21 03:14:13;;;;;;;;;;;11.50;52.30;;;;;;2089787;28;961;-47
2021/03/21 03:15:32;;;;;;;;;;;11.50;52.30;;;;;;2080230;28;733;-46
2021/03/21 03:16:54;;;;;;;;;;;11.50;52.40;;;;;;2082364;28;761;-47
2021/03/21 03:18:13;;;;;;;;;;;11.50;52.30;;;;;;2086411;28;747;-46
2021/03/21 03:19:36;;;;;;;;;;;11.50;52.30;;;;;;2089304;28;1906;-47
2021/03/21 03:21:02;;;;;;;;;;;11.50;52.40;;;;;;2087872;28;740;-46
2021/03/21 03:22:33;;;;;;;;;;;11.50;52.90;;;;;;2089228;28;753;-47
2021/03/21 03:24:09;;;;;;;;;;;11.50;52.40;;;;;;2089866;28;722;-47
2021/03/21 03:25:29;;;;;;;;;;;11.50;52.40;;;;;;2089272;28;729;-46
2021/03/21 03:26:57;;;;;;;;;;;11.50;52.40;;;;;;2083611;28;2099;-47
2021/03/21 03:28:37;;;;;;;;;;;11.50;52.40;;;;;;2088156;28;1071;-47
2021/03/21 03:29:57;;;;;;;;;;;11.50;52.40;;;;;;2088194;28;1533;-45
2021/03/21 03:31:26;;;;;;;;;;;11.50;52.40;;;;;;2084159;28;1157;-47
2021/03/21 03:32:47;;;;;;;;;;;11.50;52.50;;;;;;2080388;28;1076;-45
2021/03/21 03:34:06;;;;;;;;;;;11.50;52.50;;;;;;2086123;28;750;-46
2021/03/21 03:35:25;;;;;;;;;;;11.50;52.40;;;;;;2088626;28;743;-47
2021/03/21 03:36:44;;;;;;;;;;;11.50;52.50;;;;;;2091404;28;1030;-46
2021/03/21 03:38:04;;;;;;;;;;;11.50;52.50;;;;;;2092725;28;1070;-46
2021/03/21 03:39:23;;;;;;;;;;;11.40;52.30;;;;;;2096922;28;1969;-46
2021/03/21 03:40:44;;;;;;;;;;;11.50;53.00;;;;;;2098014;28;1380;-47
2021/03/21 03:42:03;;;;;;;;;;;11.50;52.50;;;;;;2097400;28;734;-47
2021/03/21 03:43:41;;;;;;;;;;;11.40;52.40;;;;;;2092750;28;1359;-46
2021/03/21 03:45:06;;;;;;;;;;;11.40;52.40;;;;;;2096751;28;748;-46
2021/03/21 03:46:25;;;;;;;;;;;11.40;52.50;;;;;;2084528;28;964;-46
2021/03/21 03:47:53;;;;;;;;;;;11.40;52.50;;;;;;2082923;28;1312;-47
2021/03/21 03:49:18;;;;;;;;;;;11.40;52.50;;;;;;2089449;28;1556;-46
2021/03/21 03:50:47;;;;;;;;;;;11.40;52.50;;;;;;2089157;28;1467;-49
2021/03/21 03:52:09;;;;;;;;;;;11.40;52.50;;;;;;2089256;28;726;-46
2021/03/21 03:53:31;;;;;;;;;;;11.40;52.50;;;;;;2086221;28;733;-47
2021/03/21 03:55:09;;;;;;;;;;;11.40;53.00;;;;;;2089077;28;729;-46
2021/03/21 03:56:35;;;;;;;;;;;11.40;52.50;;;;;;2089645;28;713;-46
2021/03/21 03:58:01;;;;;;;;;;;11.40;52.50;;;;;;2089625;28;788;-46
2021/03/21 03:59:29;;;;;;;;;;;11.40;52.50;;;;;;2082858;28;1906;-47
2021/03/21 04:00:51;;;;;;;;;;;11.40;52.50;;;;;;2096012;28;1180;-46
2021/03/21 04:02:13;;;;;;;;;;;11.40;52.60;;;;;;2082362;28;1303;-47
2021/03/21 04:03:41;;;;;;;;;;;11.40;52.50;;;;;;2078071;28;1351;-46
2021/03/21 04:05:26;;;;;;;;;;;11.40;52.60;;;;;;2092390;28;1172;-46
2021/03/21 04:06:45;;;;;;;;;;;11.40;52.60;;;;;;2093749;28;1257;-46
2021/03/21 04:08:07;;;;;;;;;;;11.40;52.50;;;;;;2098122;28;1511;-46
2021/03/21 04:09:32;;;;;;;;;;;11.40;52.50;;;;;;2096321;28;1217;-45
2021/03/21 04:11:02;;;;;;;;;;;11.40;52.60;;;;;;2098009;28;1268;-46
2021/03/21 04:12:25;;;;;;;;;;;11.40;52.60;;;;;;2098350;28;1194;-45
2021/03/21 04:13:44;;;;;;;;;;;11.40;52.60;;;;;;2091179;28;1423;-46
2021/03/21 04:15:06;;;;;;;;;;;11.40;52.60;;;;;;2092632;28;1412;-46
2021/03/21 04:16:27;;;;;;;;;;;11.40;52.60;;;;;;2094031;28;1138;-46
2021/03/21 04:17:48;;;;;;;;;;;11.40;52.60;;;;;;2090821;28;1394;-47
2021/03/21 04:19:08;;;;;;;;;;;11.40;52.60;;;;;;2096739;28;1910;-46
2021/03/21 04:20:31;;;;;;;;;;;11.40;52.60;;;;;;2089658;28;1542;-46
2021/03/21 04:21:54;;;;;;;;;;;11.40;52.60;;;;;;2089519;28;1255;-48
2021/03/21 04:23:15;;;;;;;;;;;11.30;52.60;;;;;;2091631;28;1314;-46
2021/03/21 04:24:40;;;;;;;;;;;11.40;52.70;;;;;;2097629;28;1181;-46
2021/03/21 04:26:00;;;;;;;;;;;11.40;52.60;;;;;;2092668;28;1376;-46
2021/03/21 04:27:23;;;;;;;;;;;11.30;52.60;;;;;;2092912;28;1278;-47
2021/03/21 04:29:01;;;;;;;;;;;11.40;53.20;;;;;;2091159;28;1369;-46
2021/03/21 04:30:27;;;;;;;;;;;11.30;52.60;;;;;;2083395;28;1575;-47
2021/03/21 04:31:46;;;;;;;;;;;11.30;52.60;;;;;;2085670;28;1286;-46
2021/03/21 04:33:06;;;;;;;;;;;11.30;52.60;;;;;;2082614;28;968;-46
2021/03/21 04:34:25;;;;;;;;;;;11.30;52.60;;;;;;2090825;28;1138;-45
2021/03/21 04:35:49;;;;;;;;;;;11.30;52.60;;;;;;2091145;28;1103;-46
2021/03/21 04:37:08;;;;;;;;;;;11.30;52.60;;;;;;2090457;28;1349;-46
2021/03/21 04:38:30;;;;;;;;;;;11.30;52.70;;;;;;2087963;28;1168;-46
2021/03/21 04:39:50;;;;;;;;;;;11.30;52.70;;;;;;2089268;28;1967;-46
2021/03/21 04:41:11;;;;;;;;;;;11.30;53.20;;;;;;2093433;28;1382;-46
2021/03/21 04:42:36;;;;;;;;;;;11.30;52.70;;;;;;2093537;28;1345;-46
2021/03/21 04:44:02;;;;;;;;;;;11.30;52.60;;;;;;2083369;28;1221;-46
2021/03/21 04:45:23;;;;;;;;;;;11.30;52.60;;;;;;2080932;28;1045;-46
2021/03/21 04:46:44;;;;;;;;;;;11.30;52.70;;;;;;2084850;28;1237;-46
2021/03/21 04:48:04;;;;;;;;;;;11.30;52.70;;;;;;2088631;28;1345;-48
2021/03/21 04:49:23;;;;;;;;;;;11.30;52.70;;;;;;2088592;28;1278;-48
2021/03/21 04:50:42;;;;;;;;;;;11.30;52.70;;;;;;2092834;28;1475;-48
2021/03/21 04:52:16;;;;;;;;;;;11.30;52.80;;;;;;2091687;28;1141;-47
2021/03/21 04:53:54;;;;;;;;;;;11.30;52.80;;;;;;2081951;28;1368;-47
2021/03/21 04:55:25;;;;;;;;;;;11.30;52.80;;;;;;2088277;28;1208;-46
2021/03/21 04:56:45;;;;;;;;;;;11.30;52.80;;;;;;2090791;28;1397;-47
2021/03/21 04:58:05;;;;;;;;;;;11.30;53.40;;;;;;2087151;28;1250;-47
2021/03/21 04:59:32;;;;;;;;;;;11.30;52.80;;;;;;2090779;28;1959;-46
2021/03/21 05:00:51;;;;;;;;;;;11.30;52.80;;;;;;2088270;28;1247;-47
2021/03/21 05:02:13;;;;;;;;;;;11.30;52.80;;;;;;2086015;28;1420;-47
2021/03/21 05:03:34;;;;;;;;;;;11.30;52.80;;;;;;2091789;28;1294;-46
2021/03/21 05:04:59;;;;;;;;;;;11.30;52.80;;;;;;2089092;28;1418;-46
2021/03/21 05:06:20;;;;;;;;;;;11.30;52.80;;;;;;2091141;28;1299;-47
2021/03/21 05:07:49;;;;;;;;;;;11.30;52.80;;;;;;2079169;28;1318;-46
2021/03/21 05:09:14;;;;;;;;;;;11.30;52.80;;;;;;2089120;28;1369;-45
2021/03/21 05:10:35;;;;;;;;;;;11.30;52.80;;;;;;2092581;28;1440;-48
2021/03/21 05:11:59;;;;;;;;;;;11.30;52.40;;;;;;2090926;28;1321;-48
2021/03/21 05:13:20;;;;;;;;;;;11.30;52.80;;;;;;2087699;28;1148;-48
2021/03/21 05:14:41;;;;;;;;;;;11.30;52.80;;;;;;2080625;28;1265;-47
2021/03/21 05:16:14;;;;;;;;;;;11.30;52.80;;;;;;2083054;28;1305;-47
2021/03/21 05:17:36;;;;;;;;;;;11.30;53.40;;;;;;2080382;28;1390;-48
2021/03/21 05:18:58;;;;;;;;;;;11.30;53.40;;;;;;2087483;28;1361;-47
2021/03/21 05:20:22;;;;;;;;;;;11.20;52.80;;;;;;2081102;28;1532;-47
2021/03/21 05:21:43;;;;;;;;;;;11.20;52.80;;;;;;2087278;28;1156;-47
2021/03/21 05:23:08;;;;;;;;;;;11.20;52.80;;;;;;2088925;28;1349;-47
2021/03/21 05:24:47;;;;;;;;;;;11.20;52.80;;;;;;2087081;28;1303;-48
2021/03/21 05:26:15;;;;;;;;;;;11.30;52.90;;;;;;2088293;28;1178;-48
2021/03/21 05:27:41;;;;;;;;;;;11.30;53.10;;;;;;2079016;28;1379;-50
2021/03/21 05:29:00;;;;;;;;;;;11.30;53.30;;;;;;2086618;28;1429;-49
2021/03/21 05:30:21;;;;;;;;;;;11.30;53.40;;;;;;2094082;28;1455;-48
2021/03/21 05:31:40;;;;;;;;;;;11.30;54.00;;;;;;2089254;28;1378;-47
2021/03/21 05:32:59;;;;;;;;;;;11.30;53.50;;;;;;2091701;28;1412;-48
2021/03/21 05:34:19;;;;;;;;;;;11.30;53.50;;;;;;2090214;28;1192;-48
2021/03/21 05:35:38;;;;;;;;;;;11.30;53.60;;;;;;2090888;28;1285;-46
2021/03/21 05:37:06;;;;;;;;;;;11.30;53.70;;;;;;2084756;28;1208;-47
2021/03/21 05:38:44;;;;;;;;;;;11.30;53.70;;;;;;2089805;28;1286;-46
2021/03/21 05:40:22;;;;;;;;;;;11.30;53.80;;;;;;2088779;28;2008;-46
2021/03/21 05:41:51;;;;;;;;;;;11.30;53.80;;;;;;2089762;28;1345;-46
2021/03/21 05:43:28;;;;;;;;;;;11.30;53.90;;;;;;2088671;28;1257;-46
2021/03/21 05:45:00;;;;;;;;;;;11.30;53.90;;;;;;2087874;28;1235;-47
2021/03/21 05:46:25;;;;;;;;;;;11.30;53.90;;;;;;2089445;28;1239;-46
2021/03/21 05:47:53;;;;;;;;;;;11.30;53.90;;;;;;2090160;28;1169;-48
2021/03/21 05:49:19;;;;;;;;;;;11.30;54.00;;;;;;2089759;28;1334;-46
2021/03/21 05:50:41;;;;;;;;;;;11.30;54.00;;;;;;2090191;28;1435;-46
2021/03/21 05:52:06;;;;;;;;;;;11.20;53.90;;;;;;2089903;28;1361;-47
2021/03/21 05:53:43;;;;;;;;;;;11.20;54.00;;;;;;2081361;28;1122;-49
2021/03/21 05:55:21;;;;;;;;;;;11.20;54.00;;;;;;2089462;28;1390;-46
2021/03/21 05:56:49;;;;;;;;;;;11.20;54.10;;;;;;2090105;28;1095;-48
2021/03/21 05:58:20;;;;;;;;;;;11.20;54.00;;;;;;2090384;28;1375;-46
2021/03/21 05:59:52;;;;;;;;;;;11.20;54.00;;;;;;2088034;28;1894;-46
2021/03/21 06:01:20;;;;;;;;;;;11.20;54.00;;;;;;2090463;28;1292;-47
2021/03/21 06:02:42;;;;;;;;;;;11.20;54.00;;;;;;2090382;28;1232;-46
2021/03/21 06:04:11;;;;;;;;;;;11.20;54.00;;;;;;2091358;28;1246;-46
2021/03/21 06:05:49;;;;;;;;;;;11.20;54.00;;;;;;2092324;28;1350;-46
2021/03/21 06:07:08;;;;;;;;;;;11.20;54.00;;;;;;2091077;28;1260;-47
2021/03/21 06:08:30;;;;;;;;;;;11.20;54.00;;;;;;2092781;28;1161;-45
2021/03/21 06:09:49;;;;;;;;;;;11.20;54.00;;;;;;2091056;28;1178;-46
2021/03/21 06:11:11;;;;;;;;;;;11.20;54.00;;;;;;2090455;28;1258;-45
2021/03/21 06:12:36;;;;;;;;;;;11.20;54.00;;;;;;2094069;28;1392;-48
2021/03/21 06:13:58;;;;;;;;;;;11.20;54.00;;;;;;2090640;28;1360;-46
2021/03/21 06:15:36;;;;;;;;;;;11.20;54.00;;;;;;2076937;28;1162;-47
2021/03/21 06:16:58;;;;;;;;;;;11.20;54.00;;;;;;2089921;28;1377;-47
2021/03/21 06:18:30;;;;;;;;;;;11.20;54.00;;;;;;2095951;28;1377;-48
2021/03/21 06:19:53;;;;;;;;;;;11.20;54.20;;;;;;2083624;28;1937;-46
2021/03/21 06:21:21;;;;;;;;;;;11.20;54.00;;;;;;2086206;28;1291;-52
2021/03/21 06:22:50;;;;;;;;;;;11.30;54.60;;;;;;2088454;28;1196;-49
2021/03/21 06:24:21;;;;;;;;;;;11.30;54.60;;;;;;2092839;28;1314;-48
2021/03/21 06:25:46;;;;;;;;;;;11.30;54.60;;;;;;2091317;28;1334;-49
2021/03/21 06:27:21;;;;;;;;;;;11.30;54.70;;;;;;2093470;28;1113;-49
2021/03/21 06:28:58;;;;;;;;;;;11.30;54.60;;;;;;2089388;28;1355;-49
2021/03/21 06:30:36;;;;;;;;;;;11.30;55.30;;;;;;2092427;28;1397;-47
2021/03/21 06:32:14;;;;;;;;;;;11.30;55.00;;;;;;2092593;28;1416;-46
2021/03/21 06:34:07;;;;;;;;;;;11.30;55.00;;;;;;2090610;28;1619;-47
2021/03/21 06:36:04;;;;;;;;;;;11.30;55.00;;;;;;2095311;28;1454;-51
2021/03/21 06:37:29;;;;;;;;;;;11.30;55.20;;;;;;2090076;28;1428;-51
2021/03/21 06:39:03;;;;;;;;;;;11.20;55.00;;;;;;2088971;28;1331;-49
2021/03/21 06:40:25;;;;;;;;;;;11.20;55.00;;;;;;2090723;28;1447;-54
2021/03/21 06:42:03;;;;;;;;;;;11.20;55.10;;;;;;2080760;28;1449;-51
2021/03/21 06:43:31;;;;;;;;;;;11.20;55.20;;;;;;2087878;28;1421;-55
2021/03/21 06:45:00;;;;;;;;;;;11.20;55.20;;;;;;2090048;28;1237;-54
2021/03/21 06:46:19;;;;;;;;;;;11.20;55.60;;;;;;2090566;28;1203;-53
2021/03/21 06:48:00;;;;;;;;;;;11.20;55.20;;;;;;2088700;28;1423;-53
2021/03/21 06:49:34;;;;;;;;;;;11.20;55.20;;;;;;2083848;28;1316;-52
2021/03/21 06:50:53;;;;;;;;;;;11.20;55.20;;;;;;2091207;28;1307;-52
2021/03/21 06:52:16;;;;;;;;;;;11.20;55.20;;;;;;2090600;28;1228;-49
2021/03/21 06:53:35;;;;;;;;;;;11.20;55.10;;;;;;2090374;28;1253;-50
2021/03/21 06:54:54;;;;;;;;;;;11.20;55.20;;;;;;2086000;28;1200;-50
2021/03/21 06:56:29;;;;;;;;;;;11.20;55.10;;;;;;2090081;28;1448;-50
2021/03/21 06:57:51;;;;;;;;;;;11.20;55.20;;;;;;2090319;28;1259;-50
2021/03/21 06:59:26;;;;;;;;;;;11.20;55.10;;;;;;2093844;28;1285;-55
2021/03/21 07:00:58;;;;;;;;;;;11.20;55.10;;;;;;2091551;28;1476;-51
2021/03/21 07:02:20;;;;;;;;;;;11.20;55.10;;;;;;2091332;28;1157;-51
2021/03/21 07:03:49;;;;;;;;;;;11.20;55.10;;;;;;2090129;28;1217;-47
2021/03/21 07:05:08;;;;;;;;;;;11.20;55.10;;;;;;2093179;28;1166;-50
2021/03/21 07:06:46;;;;;;;;;;;11.10;55.00;;;;;;2090887;28;1147;-48
2021/03/21 07:08:05;;;;;;;;;;;11.10;54.90;;;;;;2090759;28;1344;-50
2021/03/21 07:09:27;;;;;;;;;;;11.20;55.10;;;;;;2086429;28;1375;-53
2021/03/21 07:10:47;;;;;;;;;;;11.10;55.00;;;;;;2091363;28;1318;-51
2021/03/21 07:12:23;;;;;;;;;;;11.20;55.30;;;;;;2093230;28;1303;-50
2021/03/21 07:13:42;;;;;;;;;;;11.20;55.50;;;;;;2091679;28;1317;-50
2021/03/21 07:15:05;;;;;;;;;;;11.20;56.20;;;;;;2090166;28;1404;-51
2021/03/21 07:16:37;;;;;;;;;;;11.20;56.00;;;;;;2092833;28;1268;-51
2021/03/21 07:17:56;;;;;;;;;;;11.20;55.50;;;;;;2088791;28;1258;-50
2021/03/21 07:19:34;;;;;;;;;;;11.20;55.60;;;;;;2091031;28;1967;-54
2021/03/21 07:21:02;;;;;;;;;;;11.20;55.70;;;;;;2087497;28;1407;-49
2021/03/21 07:22:41;;;;;;;;;;;11.20;55.80;;;;;;2087601;28;1185;-51
2021/03/21 07:24:19;;;;;;;;;;;11.10;55.70;;;;;;2088505;28;1338;-48
2021/03/21 07:25:45;;;;;;;;;;;11.20;55.80;;;;;;2087133;28;1351;-49
2021/03/21 07:27:23;;;;;;;;;;;11.10;55.80;;;;;;2087944;28;1459;-51
2021/03/21 07:29:01;;;;;;;;;;;11.10;55.80;;;;;;2090681;28;1201;-50
2021/03/21 07:30:26;;;;;;;;;;;11.10;55.80;;;;;;2091175;28;1435;-52
2021/03/21 07:32:04;;;;;;;;;;;11.10;55.90;;;;;;2091696;28;1318;-54
2021/03/21 07:33:25;;;;;;;;;;;11.10;55.90;;;;;;2089398;28;1272;-52
2021/03/21 07:34:53;;;;;;;;;;;11.10;55.90;;;;;;2076702;28;1257;-52
2021/03/21 07:36:15;;;;;;;;;;;11.10;55.90;;;;;;2085381;28;1268;-49
2021/03/21 07:37:34;;;;;;;;;;;11.10;55.90;;;;;;2086149;28;1332;-48
2021/03/21 07:38:53;;;;;;;;;;;11.10;55.90;;;;;;2088294;28;1183;-52
2021/03/21 07:40:26;;;;;;;;;;;11.10;55.90;;;;;;2090024;28;1914;-52
2021/03/21 07:42:04;;;;;;;;;;;11.10;55.90;;;;;;2096144;28;1338;-54
2021/03/21 07:43:42;;;;;;;;;;;11.10;55.80;;;;;;2095614;28;1111;-54
2021/03/21 07:45:05;;;;;;;;;;;11.10;55.90;;;;;;2095142;28;1187;-50
2021/03/21 07:46:44;;;;;;;;;;;11.10;55.90;;;;;;2095860;28;1308;-51
2021/03/21 07:48:09;;;;;;;;;;;11.10;55.80;;;;;;2100773;28;1312;-52
2021/03/21 07:49:34;;;;;;;;;;;11.10;55.90;;;;;;2093973;28;1295;-48
2021/03/21 07:50:53;;;;;;;;;;;11.10;55.90;;;;;;2091088;28;1334;-49
2021/03/21 07:52:16;;;;;;;;;;;11.10;55.90;;;;;;2092844;28;1409;-48
2021/03/21 07:53:39;;;;;;;;;;;11.10;55.90;;;;;;2092142;28;1213;-49
2021/03/21 07:55:17;;;;;;;;;;;11.10;55.80;;;;;;2080697;28;1274;-51
2021/03/21 07:56:42;;;;;;;;;;;11.10;55.90;;;;;;2094928;28;1423;-49
2021/03/21 07:58:19;;;;;;;;;;;11.10;55.90;;;;;;2095057;28;1333;-53
2021/03/21 07:59:39;;;;;;;;;;;11.10;55.90;;;;;;2091029;28;1930;-52
2021/03/21 08:00:58;;;;;;;;;;;11.10;55.90;;;;;;2085355;28;1397;-50
2021/03/21 08:02:21;;;;;;;;;;;11.10;55.80;;;;;;2091383;28;1402;-50
2021/03/21 08:03:52;;;;;;;;;;;11.10;55.80;;;;;;2094537;28;1363;-49
2021/03/21 08:05:30;;;;;;;;;;;11.10;55.80;;;;;;2094106;28;1373;-51
2021/03/21 08:06:59;;;;;;;;;;;11.10;55.70;;;;;;2094293;28;1188;-50
2021/03/21 08:08:20;;;;;;;;;;;11.10;55.90;;;;;;2092984;28;1200;-49
2021/03/21 08:09:40;;;;;;;;;;;11.10;56.20;;;;;;2094266;28;1420;-47
2021/03/21 08:11:02;;;;;;;;;;;11.10;56.60;;;;;;2091332;28;1133;-51
2021/03/21 08:12:22;;;;;;;;;;;11.10;56.20;;;;;;2093594;28;1215;-53
2021/03/21 08:13:41;;;;;;;;;;;11.10;56.20;;;;;;2091011;28;1406;-48
2021/03/21 08:15:13;;;;;;;;;;;11.10;56.40;;;;;;2090695;28;1310;-51
2021/03/21 08:16:33;;;;;;;;;;;11.10;56.40;;;;;;2094363;28;1076;-51
2021/03/21 08:17:55;;;;;;;;;;;11.10;56.40;;;;;;2092387;28;1220;-51
2021/03/21 08:19:19;;;;;;;;;;;11.10;56.50;;;;;;2096680;28;1340;-49
2021/03/21 08:20:39;;;;;;;;;;;11.10;56.50;;;;;;2092956;28;1441;-49
2021/03/21 08:21:58;;;;;;;;;;;11.10;56.50;;;;;;2091259;28;1404;-47